sensor_id;sensor_type;location;lat;lon;timestamp;temperature;humidity
73939;DHT22;62291;47.554;8.504;2023-07-31T00:00:06;13.50;99.90
73939;DHT22;62291;47.554;8.504;2023-07-31T00:02:34;13.40;99.90
73939;DHT22;62291;47.554;8.504;2023-07-31T00:05:01;13.40;99.90
73939;DHT22;62291;47.554;8.504;2023-07-31T00:07:26;13.40;99.90
73939;DHT22;62291;47.554;8.504;2023-07-31T00:09:52;13.40;99.90
73939;DHT22;62291;47.554;8.504;2023-07-31T00:12:19;13.30;99.90
73939;DHT22;62291;47.554;8.504;2023-07-31T00:14:45;13.30;99.90
73939;DHT22;62291;47.554;8.504;2023-07-31T00:17:11;13.20;99.90
73939;DHT22;62291;47.554;8.504;2023-07-31T00:19:37;13.20;99.90
73939;DHT22;62291;47.554;8.504;2023-07-31T00:22:03;13.20;99.90
73939;DHT22;62291;47.554;8.504;2023-07-31T00:24:29;13.20;99.90
73939;DHT22;62291;47.554;8.504;2023-07-31T00:26:54;13.10;99.90
73939;DHT22;62291;47.554;8.504;2023-07-31T00:29:20;13.10;99.90
73939;DHT22;62291;47.554;8.504;2023-07-31T00:31:46;13.10;99.90
73939;DHT22;62291;47.554;8.504;2023-07-31T00:34:11;13.10;99.90
73939;DHT22;62291;47.554;8.504;2023-07-31T00:36:37;13.20;99.90
73939;DHT22;62291;47.554;8.504;2023-07-31T00:39:03;13.20;99.90
73939;DHT22;62291;47.554;8.504;2023-07-31T00:41:30;13.20;99.90
73939;DHT22;62291;47.554;8.504;2023-07-31T00:43:55;13.20;99.90
73939;DHT22;62291;47.554;8.504;2023-07-31T00:46:21;13.10;99.90
73939;DHT22;62291;47.554;8.504;2023-07-31T00:48:47;13.10;99.90
73939;DHT22;62291;47.554;8.504;2023-07-31T00:51:13;13.20;99.90
73939;DHT22;62291;47.554;8.504;2023-07-31T00:53:40;13.20;99.90
73939;DHT22;62291;47.554;8.504;2023-07-31T00:56:06;13.20;99.90
73939;DHT22;62291;47.554;8.504;2023-07-31T00:58:32;13.20;99.90
73939;DHT22;62291;47.554;8.504;2023-07-31T01:00:58;13.30;99.90
73939;DHT22;62291;47.554;8.504;2023-07-31T01:03:23;13.20;99.90
73939;DHT22;62291;47.554;8.504;2023-07-31T01:08:48;13.20;99.90
73939;DHT22;62291;47.554;8.504;2023-07-31T01:11:23;13.20;99.90
73939;DHT22;62291;47.554;8.504;2023-07-31T01:13:51;13.20;99.90
73939;DHT22;62291;47.554;8.504;2023-07-31T01:16:17;13.20;99.90
73939;DHT22;62291;47.554;8.504;2023-07-31T01:18:42;13.20;99.90
73939;DHT22;62291;47.554;8.504;2023-07-31T01:29:44;13.20;99.90
73939;DHT22;62291;47.554;8.504;2023-07-31T01:32:12;13.10;99.90
73939;DHT22;62291;47.554;8.504;2023-07-31T01:34:39;13.00;99.90
73939;DHT22;62291;47.554;8.504;2023-07-31T01:37:07;13.00;99.90
73939;DHT22;62291;47.554;8.504;2023-07-31T01:39:32;12.90;99.90
73939;DHT22;62291;47.554;8.504;2023-07-31T01:41:58;12.90;99.90
73939;DHT22;62291;47.554;8.504;2023-07-31T01:44:23;12.90;99.90
73939;DHT22;62291;47.554;8.504;2023-07-31T01:46:49;12.90;99.90
73939;DHT22;62291;47.554;8.504;2023-07-31T01:49:15;12.90;99.90
73939;DHT22;62291;47.554;8.504;2023-07-31T01:51:40;12.80;99.90
73939;DHT22;62291;47.554;8.504;2023-07-31T01:54:06;12.80;99.90
73939;DHT22;62291;47.554;8.504;2023-07-31T01:56:32;12.80;99.90
73939;DHT22;62291;47.554;8.504;2023-07-31T01:58:57;12.80;99.90
73939;DHT22;62291;47.554;8.504;2023-07-31T02:01:23;12.80;99.90
73939;DHT22;62291;47.554;8.504;2023-07-31T02:03:49;12.90;99.90
73939;DHT22;62291;47.554;8.504;2023-07-31T02:06:14;13.00;99.90
73939;DHT22;62291;47.554;8.504;2023-07-31T02:08:40;12.90;99.90
73939;DHT22;62291;47.554;8.504;2023-07-31T02:11:06;12.90;99.90
73939;DHT22;62291;47.554;8.504;2023-07-31T02:13:31;12.90;99.90
73939;DHT22;62291;47.554;8.504;2023-07-31T02:15:57;12.80;99.90
73939;DHT22;62291;47.554;8.504;2023-07-31T02:18:23;12.80;99.90
73939;DHT22;62291;47.554;8.504;2023-07-31T02:20:50;12.90;99.90
73939;DHT22;62291;47.554;8.504;2023-07-31T02:23:19;12.80;99.90
73939;DHT22;62291;47.554;8.504;2023-07-31T02:25:45;12.80;99.90
73939;DHT22;62291;47.554;8.504;2023-07-31T02:28:11;12.70;99.90
73939;DHT22;62291;47.554;8.504;2023-07-31T02:30:38;12.70;99.90
73939;DHT22;62291;47.554;8.504;2023-07-31T02:33:04;12.70;99.90
73939;DHT22;62291;47.554;8.504;2023-07-31T02:35:30;12.60;99.90
73939;DHT22;62291;47.554;8.504;2023-07-31T02:37:56;12.60;99.90
73939;DHT22;62291;47.554;8.504;2023-07-31T02:40:22;12.60;99.90
73939;DHT22;62291;47.554;8.504;2023-07-31T02:42:47;12.50;99.90
73939;DHT22;62291;47.554;8.504;2023-07-31T02:45:13;12.50;99.90
73939;DHT22;62291;47.554;8.504;2023-07-31T02:47:39;12.50;99.90
73939;DHT22;62291;47.554;8.504;2023-07-31T02:50:05;12.50;99.90
73939;DHT22;62291;47.554;8.504;2023-07-31T02:52:31;12.50;99.90
73939;DHT22;62291;47.554;8.504;2023-07-31T02:54:57;12.50;99.90
73939;DHT22;62291;47.554;8.504;2023-07-31T02:57:23;12.40;99.90
73939;DHT22;62291;47.554;8.504;2023-07-31T02:59:49;12.40;99.90
73939;DHT22;62291;47.554;8.504;2023-07-31T03:02:14;12.50;99.90
73939;DHT22;62291;47.554;8.504;2023-07-31T03:04:40;12.40;99.90
73939;DHT22;62291;47.554;8.504;2023-07-31T03:07:06;12.40;99.90
73939;DHT22;62291;47.554;8.504;2023-07-31T03:09:32;12.40;99.90
73939;DHT22;62291;47.554;8.504;2023-07-31T03:11:57;12.40;99.90
73939;DHT22;62291;47.554;8.504;2023-07-31T03:14:23;12.30;99.90
73939;DHT22;62291;47.554;8.504;2023-07-31T03:16:49;12.30;99.90
73939;DHT22;62291;47.554;8.504;2023-07-31T03:19:14;12.30;99.90
73939;DHT22;62291;47.554;8.504;2023-07-31T03:21:40;12.30;99.90
73939;DHT22;62291;47.554;8.504;2023-07-31T03:24:06;12.20;99.90
73939;DHT22;62291;47.554;8.504;2023-07-31T03:26:32;12.20;99.90
73939;DHT22;62291;47.554;8.504;2023-07-31T03:28:58;12.20;99.90
73939;DHT22;62291;47.554;8.504;2023-07-31T03:31:24;12.20;99.90
73939;DHT22;62291;47.554;8.504;2023-07-31T03:33:50;12.20;99.90
73939;DHT22;62291;47.554;8.504;2023-07-31T03:36:15;12.20;99.90
73939;DHT22;62291;47.554;8.504;2023-07-31T03:38:41;12.20;99.90
73939;DHT22;62291;47.554;8.504;2023-07-31T03:41:07;12.10;99.90
73939;DHT22;62291;47.554;8.504;2023-07-31T03:43:33;12.20;99.90
73939;DHT22;62291;47.554;8.504;2023-07-31T03:46:01;12.20;99.90
73939;DHT22;62291;47.554;8.504;2023-07-31T03:48:28;12.20;99.90
73939;DHT22;62291;47.554;8.504;2023-07-31T03:50:54;12.10;99.90
73939;DHT22;62291;47.554;8.504;2023-07-31T03:53:20;12.10;99.90
73939;DHT22;62291;47.554;8.504;2023-07-31T03:55:46;12.10;99.90
73939;DHT22;62291;47.554;8.504;2023-07-31T03:58:11;12.00;99.90
73939;DHT22;62291;47.554;8.504;2023-07-31T04:00:37;12.10;99.90
73939;DHT22;62291;47.554;8.504;2023-07-31T04:03:03;12.00;99.90
73939;DHT22;62291;47.554;8.504;2023-07-31T04:05:31;12.10;99.90
73939;DHT22;62291;47.554;8.504;2023-07-31T04:07:56;12.00;99.90
73939;DHT22;62291;47.554;8.504;2023-07-31T04:10:22;12.00;99.90
73939;DHT22;62291;47.554;8.504;2023-07-31T04:12:48;12.00;99.90
73939;DHT22;62291;47.554;8.504;2023-07-31T04:15:14;12.10;99.90
73939;DHT22;62291;47.554;8.504;2023-07-31T04:17:39;12.10;99.90
73939;DHT22;62291;47.554;8.504;2023-07-31T04:20:05;12.20;99.90
73939;DHT22;62291;47.554;8.504;2023-07-31T04:22:31;12.20;99.90
73939;DHT22;62291;47.554;8.504;2023-07-31T04:24:57;12.30;99.90
73939;DHT22;62291;47.554;8.504;2023-07-31T04:27:22;12.40;99.90
73939;DHT22;62291;47.554;8.504;2023-07-31T04:29:48;12.40;99.90
73939;DHT22;62291;47.554;8.504;2023-07-31T04:32:14;12.60;99.90
73939;DHT22;62291;47.554;8.504;2023-07-31T04:34:42;12.70;99.90
73939;DHT22;62291;47.554;8.504;2023-07-31T04:37:07;12.80;99.90
73939;DHT22;62291;47.554;8.504;2023-07-31T04:39:33;12.90;99.90
73939;DHT22;62291;47.554;8.504;2023-07-31T04:41:59;13.20;99.90
73939;DHT22;62291;47.554;8.504;2023-07-31T04:44:24;13.50;99.90
73939;DHT22;62291;47.554;8.504;2023-07-31T04:46:50;13.70;99.90
73939;DHT22;62291;47.554;8.504;2023-07-31T04:49:16;13.90;99.90
73939;DHT22;62291;47.554;8.504;2023-07-31T04:51:41;13.90;99.90
73939;DHT22;62291;47.554;8.504;2023-07-31T04:54:07;13.90;99.90
73939;DHT22;62291;47.554;8.504;2023-07-31T04:56:33;14.00;99.90
73939;DHT22;62291;47.554;8.504;2023-07-31T04:58:58;14.10;99.90
73939;DHT22;62291;47.554;8.504;2023-07-31T05:01:24;14.10;99.90
73939;DHT22;62291;47.554;8.504;2023-07-31T05:03:50;14.10;99.90
73939;DHT22;62291;47.554;8.504;2023-07-31T05:06:15;14.20;99.90
73939;DHT22;62291;47.554;8.504;2023-07-31T05:08:41;14.10;99.90
73939;DHT22;62291;47.554;8.504;2023-07-31T05:11:07;14.20;99.90
73939;DHT22;62291;47.554;8.504;2023-07-31T05:13:32;14.30;99.90
73939;DHT22;62291;47.554;8.504;2023-07-31T05:15:58;14.40;99.90
73939;DHT22;62291;47.554;8.504;2023-07-31T05:18:24;14.40;99.90
73939;DHT22;62291;47.554;8.504;2023-07-31T05:20:49;14.40;99.90
73939;DHT22;62291;47.554;8.504;2023-07-31T05:23:15;14.50;99.90
73939;DHT22;62291;47.554;8.504;2023-07-31T05:25:41;14.60;99.90
73939;DHT22;62291;47.554;8.504;2023-07-31T05:28:06;14.70;99.90
73939;DHT22;62291;47.554;8.504;2023-07-31T05:30:32;14.90;99.90
73939;DHT22;62291;47.554;8.504;2023-07-31T05:32:58;14.90;99.90
73939;DHT22;62291;47.554;8.504;2023-07-31T05:35:24;14.90;99.90
73939;DHT22;62291;47.554;8.504;2023-07-31T05:37:49;15.00;99.90
73939;DHT22;62291;47.554;8.504;2023-07-31T05:40:15;15.10;99.90
73939;DHT22;62291;47.554;8.504;2023-07-31T05:42:41;15.20;99.90
73939;DHT22;62291;47.554;8.504;2023-07-31T05:45:07;15.20;99.90
73939;DHT22;62291;47.554;8.504;2023-07-31T05:47:33;15.30;99.90
73939;DHT22;62291;47.554;8.504;2023-07-31T05:49:59;15.30;99.90
73939;DHT22;62291;47.554;8.504;2023-07-31T05:52:24;15.40;99.90
73939;DHT22;62291;47.554;8.504;2023-07-31T05:54:50;15.40;99.90
73939;DHT22;62291;47.554;8.504;2023-07-31T05:57:16;15.60;99.90
73939;DHT22;62291;47.554;8.504;2023-07-31T05:59:41;15.60;99.90
73939;DHT22;62291;47.554;8.504;2023-07-31T06:02:07;15.60;99.90
73939;DHT22;62291;47.554;8.504;2023-07-31T06:04:33;15.60;99.90
73939;DHT22;62291;47.554;8.504;2023-07-31T06:06:59;15.60;99.90
73939;DHT22;62291;47.554;8.504;2023-07-31T06:09:25;15.60;99.90
73939;DHT22;62291;47.554;8.504;2023-07-31T06:11:51;15.70;99.90
73939;DHT22;62291;47.554;8.504;2023-07-31T06:14:17;15.70;99.90
73939;DHT22;62291;47.554;8.504;2023-07-31T06:16:43;15.70;99.90
73939;DHT22;62291;47.554;8.504;2023-07-31T06:19:09;15.80;99.90
73939;DHT22;62291;47.554;8.504;2023-07-31T06:21:35;15.90;99.90
73939;DHT22;62291;47.554;8.504;2023-07-31T06:24:03;16.00;99.90
73939;DHT22;62291;47.554;8.504;2023-07-31T06:26:29;16.20;99.90
73939;DHT22;62291;47.554;8.504;2023-07-31T06:28:54;16.30;99.90
73939;DHT22;62291;47.554;8.504;2023-07-31T06:31:20;16.40;99.90
73939;DHT22;62291;47.554;8.504;2023-07-31T06:33:49;16.50;99.90
73939;DHT22;62291;47.554;8.504;2023-07-31T06:36:15;16.70;99.90
73939;DHT22;62291;47.554;8.504;2023-07-31T06:38:40;16.80;99.90
73939;DHT22;62291;47.554;8.504;2023-07-31T06:41:06;16.90;99.90
73939;DHT22;62291;47.554;8.504;2023-07-31T06:43:32;17.00;99.90
73939;DHT22;62291;47.554;8.504;2023-07-31T06:45:57;17.00;99.90
73939;DHT22;62291;47.554;8.504;2023-07-31T06:48:23;17.00;99.90
73939;DHT22;62291;47.554;8.504;2023-07-31T06:50:48;17.00;99.90
73939;DHT22;62291;47.554;8.504;2023-07-31T06:53:14;17.30;99.90
73939;DHT22;62291;47.554;8.504;2023-07-31T06:55:40;17.90;99.90
73939;DHT22;62291;47.554;8.504;2023-07-31T06:58:05;18.60;99.90
73939;DHT22;62291;47.554;8.504;2023-07-31T07:00:31;19.10;99.90
73939;DHT22;62291;47.554;8.504;2023-07-31T07:02:57;19.60;99.90
73939;DHT22;62291;47.554;8.504;2023-07-31T07:05:23;19.50;99.90
73939;DHT22;62291;47.554;8.504;2023-07-31T07:07:49;19.50;99.90
73939;DHT22;62291;47.554;8.504;2023-07-31T07:10:16;19.50;99.90
73939;DHT22;62291;47.554;8.504;2023-07-31T07:12:42;19.40;99.90
73939;DHT22;62291;47.554;8.504;2023-07-31T07:15:08;19.40;99.90
73939;DHT22;62291;47.554;8.504;2023-07-31T07:17:34;19.60;99.90
73939;DHT22;62291;47.554;8.504;2023-07-31T07:20:00;19.80;99.90
73939;DHT22;62291;47.554;8.504;2023-07-31T07:22:26;20.40;99.90
73939;DHT22;62291;47.554;8.504;2023-07-31T07:24:53;20.60;99.90
73939;DHT22;62291;47.554;8.504;2023-07-31T07:27:18;20.80;99.90
73939;DHT22;62291;47.554;8.504;2023-07-31T07:29:45;20.80;99.90
73939;DHT22;62291;47.554;8.504;2023-07-31T07:32:11;21.00;99.90
73939;DHT22;62291;47.554;8.504;2023-07-31T07:34:37;21.40;99.90
73939;DHT22;62291;47.554;8.504;2023-07-31T07:37:03;22.70;99.90
73939;DHT22;62291;47.554;8.504;2023-07-31T07:39:28;23.40;99.90
73939;DHT22;62291;47.554;8.504;2023-07-31T07:41:54;24.60;99.90
73939;DHT22;62291;47.554;8.504;2023-07-31T07:44:20;25.80;99.90
73939;DHT22;62291;47.554;8.504;2023-07-31T07:46:45;26.10;98.60
73939;DHT22;62291;47.554;8.504;2023-07-31T07:49:11;26.20;99.40
73939;DHT22;62291;47.554;8.504;2023-07-31T07:51:37;26.00;97.40
73939;DHT22;62291;47.554;8.504;2023-07-31T07:54:03;25.90;96.70
73939;DHT22;62291;47.554;8.504;2023-07-31T07:56:28;26.10;96.30
73939;DHT22;62291;47.554;8.504;2023-07-31T07:58:55;26.60;96.10
73939;DHT22;62291;47.554;8.504;2023-07-31T08:01:20;26.50;97.00
73939;DHT22;62291;47.554;8.504;2023-07-31T08:03:50;26.00;98.30
73939;DHT22;62291;47.554;8.504;2023-07-31T08:06:15;25.80;97.90
73939;DHT22;62291;47.554;8.504;2023-07-31T08:08:41;25.70;97.70
73939;DHT22;62291;47.554;8.504;2023-07-31T08:11:07;26.00;99.00
73939;DHT22;62291;47.554;8.504;2023-07-31T08:13:33;26.30;96.60
73939;DHT22;62291;47.554;8.504;2023-07-31T08:15:58;26.10;96.30
73939;DHT22;62291;47.554;8.504;2023-07-31T08:18:24;25.70;95.30
73939;DHT22;62291;47.554;8.504;2023-07-31T08:20:50;26.00;93.40
73939;DHT22;62291;47.554;8.504;2023-07-31T08:23:15;25.90;91.60
73939;DHT22;62291;47.554;8.504;2023-07-31T08:25:41;25.50;92.00
73939;DHT22;62291;47.554;8.504;2023-07-31T08:28:07;25.20;93.20
73939;DHT22;62291;47.554;8.504;2023-07-31T08:30:33;24.40;94.20
73939;DHT22;62291;47.554;8.504;2023-07-31T08:32:59;23.70;93.90
73939;DHT22;62291;47.554;8.504;2023-07-31T08:35:26;23.30;95.30
73939;DHT22;62291;47.554;8.504;2023-07-31T08:37:51;23.40;95.90
73939;DHT22;62291;47.554;8.504;2023-07-31T08:40:17;23.60;96.10
73939;DHT22;62291;47.554;8.504;2023-07-31T08:42:55;23.90;95.70
73939;DHT22;62291;47.554;8.504;2023-07-31T08:45:27;24.80;93.90
73939;DHT22;62291;47.554;8.504;2023-07-31T08:47:53;24.80;92.90
73939;DHT22;62291;47.554;8.504;2023-07-31T08:50:20;24.50;92.90
73939;DHT22;62291;47.554;8.504;2023-07-31T08:52:47;24.90;93.10
73939;DHT22;62291;47.554;8.504;2023-07-31T08:55:13;25.40;92.30
73939;DHT22;62291;47.554;8.504;2023-07-31T08:57:39;25.70;92.10
73939;DHT22;62291;47.554;8.504;2023-07-31T09:00:08;26.80;89.70
73939;DHT22;62291;47.554;8.504;2023-07-31T09:05:12;26.40;87.60
73939;DHT22;62291;47.554;8.504;2023-07-31T09:07:38;26.70;88.30
73939;DHT22;62291;47.554;8.504;2023-07-31T09:10:05;27.40;86.10
73939;DHT22;62291;47.554;8.504;2023-07-31T09:12:31;28.30;88.00
73939;DHT22;62291;47.554;8.504;2023-07-31T09:15:00;28.30;85.10
73939;DHT22;62291;47.554;8.504;2023-07-31T09:17:34;27.30;84.20
73939;DHT22;62291;47.554;8.504;2023-07-31T09:20:19;27.20;90.70
73939;DHT22;62291;47.554;8.504;2023-07-31T09:22:47;27.20;89.30
73939;DHT22;62291;47.554;8.504;2023-07-31T09:25:24;27.00;82.50
73939;DHT22;62291;47.554;8.504;2023-07-31T09:27:54;26.80;86.10
73939;DHT22;62291;47.554;8.504;2023-07-31T09:30:21;27.30;85.20
73939;DHT22;62291;47.554;8.504;2023-07-31T09:32:48;27.30;87.90
73939;DHT22;62291;47.554;8.504;2023-07-31T09:35:22;27.70;85.50
73939;DHT22;62291;47.554;8.504;2023-07-31T09:37:59;27.70;83.20
73939;DHT22;62291;47.554;8.504;2023-07-31T09:40:30;27.30;85.70
73939;DHT22;62291;47.554;8.504;2023-07-31T09:42:58;27.80;81.80
73939;DHT22;62291;47.554;8.504;2023-07-31T09:45:24;28.70;86.40
73939;DHT22;62291;47.554;8.504;2023-07-31T09:47:50;28.70;81.60
73939;DHT22;62291;47.554;8.504;2023-07-31T09:50:16;27.60;83.90
73939;DHT22;62291;47.554;8.504;2023-07-31T09:52:42;27.10;86.80
73939;DHT22;62291;47.554;8.504;2023-07-31T09:55:09;26.80;88.90
73939;DHT22;62291;47.554;8.504;2023-07-31T09:57:39;27.30;87.90
73939;DHT22;62291;47.554;8.504;2023-07-31T10:00:06;28.00;86.10
73939;DHT22;62291;47.554;8.504;2023-07-31T10:02:35;27.40;85.90
73939;DHT22;62291;47.554;8.504;2023-07-31T10:05:03;27.00;90.10
73939;DHT22;62291;47.554;8.504;2023-07-31T10:07:30;27.00;85.30
73939;DHT22;62291;47.554;8.504;2023-07-31T10:10:00;27.20;84.70
73939;DHT22;62291;47.554;8.504;2023-07-31T10:12:27;26.80;83.20
73939;DHT22;62291;47.554;8.504;2023-07-31T10:14:55;26.30;85.50
73939;DHT22;62291;47.554;8.504;2023-07-31T10:17:22;26.30;89.50
73939;DHT22;62291;47.554;8.504;2023-07-31T10:19:49;26.70;87.60
73939;DHT22;62291;47.554;8.504;2023-07-31T10:22:16;26.60;89.30
73939;DHT22;62291;47.554;8.504;2023-07-31T10:24:48;26.70;85.40
73939;DHT22;62291;47.554;8.504;2023-07-31T10:27:15;26.60;89.60
73939;DHT22;62291;47.554;8.504;2023-07-31T10:29:43;26.70;87.10
73939;DHT22;62291;47.554;8.504;2023-07-31T10:32:13;26.70;88.20
73939;DHT22;62291;47.554;8.504;2023-07-31T10:34:40;27.00;85.00
73939;DHT22;62291;47.554;8.504;2023-07-31T10:40:12;27.20;87.70
73939;DHT22;62291;47.554;8.504;2023-07-31T10:42:59;26.90;87.50
73939;DHT22;62291;47.554;8.504;2023-07-31T10:45:38;27.00;85.00
73939;DHT22;62291;47.554;8.504;2023-07-31T10:48:13;27.50;80.10
73939;DHT22;62291;47.554;8.504;2023-07-31T10:53:25;27.60;84.00
73939;DHT22;62291;47.554;8.504;2023-07-31T10:55:51;27.50;84.00
73939;DHT22;62291;47.554;8.504;2023-07-31T10:58:19;27.60;83.80
73939;DHT22;62291;47.554;8.504;2023-07-31T11:00:45;27.90;79.60
73939;DHT22;62291;47.554;8.504;2023-07-31T11:03:13;28.00;85.30
73939;DHT22;62291;47.554;8.504;2023-07-31T11:08:28;27.80;81.30
73939;DHT22;62291;47.554;8.504;2023-07-31T11:13:42;27.90;83.20
73939;DHT22;62291;47.554;8.504;2023-07-31T11:16:09;27.60;83.60
73939;DHT22;62291;47.554;8.504;2023-07-31T11:18:35;27.30;86.00
73939;DHT22;62291;47.554;8.504;2023-07-31T11:21:00;27.20;84.80
73939;DHT22;62291;47.554;8.504;2023-07-31T11:23:26;27.60;89.40
73939;DHT22;62291;47.554;8.504;2023-07-31T11:25:52;27.60;90.40
73939;DHT22;62291;47.554;8.504;2023-07-31T11:28:18;27.70;82.80
73939;DHT22;62291;47.554;8.504;2023-07-31T11:30:45;27.80;81.30
73939;DHT22;62291;47.554;8.504;2023-07-31T11:33:13;27.90;79.10
73939;DHT22;62291;47.554;8.504;2023-07-31T11:35:47;27.60;83.60
73939;DHT22;62291;47.554;8.504;2023-07-31T11:38:30;27.50;83.10
73939;DHT22;62291;47.554;8.504;2023-07-31T11:41:04;27.30;83.10
73939;DHT22;62291;47.554;8.504;2023-07-31T11:43:31;27.50;86.50
73939;DHT22;62291;47.554;8.504;2023-07-31T11:45:58;27.70;84.30
73939;DHT22;62291;47.554;8.504;2023-07-31T11:48:29;27.50;88.00
73939;DHT22;62291;47.554;8.504;2023-07-31T11:51:00;27.50;84.40
73939;DHT22;62291;47.554;8.504;2023-07-31T11:53:41;27.60;87.90
73939;DHT22;62291;47.554;8.504;2023-07-31T11:56:10;27.30;84.30
73939;DHT22;62291;47.554;8.504;2023-07-31T11:58:38;27.30;82.30
73939;DHT22;62291;47.554;8.504;2023-07-31T12:01:05;27.40;81.90
73939;DHT22;62291;47.554;8.504;2023-07-31T12:03:31;27.40;81.70
73939;DHT22;62291;47.554;8.504;2023-07-31T12:05:58;27.10;83.80
73939;DHT22;62291;47.554;8.504;2023-07-31T12:08:25;27.10;85.60
73939;DHT22;62291;47.554;8.504;2023-07-31T12:10:52;27.40;88.90
73939;DHT22;62291;47.554;8.504;2023-07-31T12:13:23;27.80;84.10
73939;DHT22;62291;47.554;8.504;2023-07-31T12:15:54;27.90;83.10
73939;DHT22;62291;47.554;8.504;2023-07-31T12:18:21;27.70;88.40
73939;DHT22;62291;47.554;8.504;2023-07-31T12:20:49;27.70;87.30
73939;DHT22;62291;47.554;8.504;2023-07-31T12:23:20;27.60;82.40
73939;DHT22;62291;47.554;8.504;2023-07-31T12:26:10;27.40;83.20
73939;DHT22;62291;47.554;8.504;2023-07-31T12:28:40;27.40;83.80
73939;DHT22;62291;47.554;8.504;2023-07-31T12:31:09;27.60;81.70
73939;DHT22;62291;47.554;8.504;2023-07-31T12:33:36;27.50;83.00
73939;DHT22;62291;47.554;8.504;2023-07-31T12:36:03;27.20;85.70
73939;DHT22;62291;47.554;8.504;2023-07-31T12:38:30;27.00;85.10
73939;DHT22;62291;47.554;8.504;2023-07-31T12:40:56;27.00;88.00
73939;DHT22;62291;47.554;8.504;2023-07-31T12:43:21;27.10;83.90
73939;DHT22;62291;47.554;8.504;2023-07-31T12:45:47;27.20;86.30
73939;DHT22;62291;47.554;8.504;2023-07-31T12:48:13;27.50;84.70
73939;DHT22;62291;47.554;8.504;2023-07-31T12:50:39;27.50;86.60
73939;DHT22;62291;47.554;8.504;2023-07-31T12:53:05;27.30;85.10
73939;DHT22;62291;47.554;8.504;2023-07-31T12:55:32;27.30;86.00
73939;DHT22;62291;47.554;8.504;2023-07-31T12:58:00;27.60;82.50
73939;DHT22;62291;47.554;8.504;2023-07-31T13:00:26;27.40;81.70
73939;DHT22;62291;47.554;8.504;2023-07-31T13:02:52;27.40;89.40
73939;DHT22;62291;47.554;8.504;2023-07-31T13:05:17;27.30;84.70
73939;DHT22;62291;47.554;8.504;2023-07-31T13:07:45;27.40;87.00
73939;DHT22;62291;47.554;8.504;2023-07-31T13:10:11;27.10;84.00
73939;DHT22;62291;47.554;8.504;2023-07-31T13:12:36;27.00;85.80
73939;DHT22;62291;47.554;8.504;2023-07-31T13:15:03;26.50;85.90
73939;DHT22;62291;47.554;8.504;2023-07-31T13:17:29;26.40;84.30
73939;DHT22;62291;47.554;8.504;2023-07-31T13:19:54;26.60;84.70
73939;DHT22;62291;47.554;8.504;2023-07-31T13:22:20;26.80;86.50
73939;DHT22;62291;47.554;8.504;2023-07-31T13:24:46;27.20;87.30
73939;DHT22;62291;47.554;8.504;2023-07-31T13:27:11;27.40;86.60
73939;DHT22;62291;47.554;8.504;2023-07-31T13:29:37;27.10;84.50
73939;DHT22;62291;47.554;8.504;2023-07-31T13:32:03;26.80;83.60
73939;DHT22;62291;47.554;8.504;2023-07-31T13:34:29;26.60;85.40
73939;DHT22;62291;47.554;8.504;2023-07-31T13:36:55;26.60;86.10
73939;DHT22;62291;47.554;8.504;2023-07-31T13:39:21;26.60;87.30
73939;DHT22;62291;47.554;8.504;2023-07-31T13:41:47;26.40;86.60
73939;DHT22;62291;47.554;8.504;2023-07-31T13:44:12;26.40;89.30
73939;DHT22;62291;47.554;8.504;2023-07-31T13:46:38;26.30;85.00
73939;DHT22;62291;47.554;8.504;2023-07-31T13:49:04;26.00;87.50
73939;DHT22;62291;47.554;8.504;2023-07-31T13:51:29;26.10;88.90
73939;DHT22;62291;47.554;8.504;2023-07-31T13:53:56;26.20;85.60
73939;DHT22;62291;47.554;8.504;2023-07-31T13:56:22;26.20;86.10
73939;DHT22;62291;47.554;8.504;2023-07-31T13:58:48;26.20;86.50
73939;DHT22;62291;47.554;8.504;2023-07-31T14:01:13;26.20;87.20
73939;DHT22;62291;47.554;8.504;2023-07-31T14:03:39;26.30;85.70
73939;DHT22;62291;47.554;8.504;2023-07-31T14:06:05;26.40;86.10
73939;DHT22;62291;47.554;8.504;2023-07-31T14:08:31;26.50;90.90
73939;DHT22;62291;47.554;8.504;2023-07-31T14:10:56;26.40;88.30
73939;DHT22;62291;47.554;8.504;2023-07-31T14:13:22;26.40;88.50
73939;DHT22;62291;47.554;8.504;2023-07-31T14:15:48;26.20;89.10
73939;DHT22;62291;47.554;8.504;2023-07-31T14:18:14;26.30;87.90
73939;DHT22;62291;47.554;8.504;2023-07-31T14:20:39;26.20;88.90
73939;DHT22;62291;47.554;8.504;2023-07-31T14:23:05;26.00;88.20
73939;DHT22;62291;47.554;8.504;2023-07-31T14:25:31;26.10;89.90
73939;DHT22;62291;47.554;8.504;2023-07-31T14:27:56;25.90;89.90
73939;DHT22;62291;47.554;8.504;2023-07-31T14:30:22;25.70;87.00
73939;DHT22;62291;47.554;8.504;2023-07-31T14:32:48;25.70;90.40
73939;DHT22;62291;47.554;8.504;2023-07-31T14:35:14;25.80;91.30
73939;DHT22;62291;47.554;8.504;2023-07-31T14:37:42;25.90;91.20
73939;DHT22;62291;47.554;8.504;2023-07-31T14:40:09;26.00;91.60
73939;DHT22;62291;47.554;8.504;2023-07-31T14:42:36;26.00;90.70
73939;DHT22;62291;47.554;8.504;2023-07-31T14:45:05;25.90;90.70
73939;DHT22;62291;47.554;8.504;2023-07-31T14:47:31;25.90;91.00
73939;DHT22;62291;47.554;8.504;2023-07-31T14:49:58;25.90;89.80
73939;DHT22;62291;47.554;8.504;2023-07-31T14:52:24;25.80;90.70
73939;DHT22;62291;47.554;8.504;2023-07-31T14:54:49;25.80;90.30
73939;DHT22;62291;47.554;8.504;2023-07-31T14:57:15;26.00;91.20
73939;DHT22;62291;47.554;8.504;2023-07-31T14:59:41;26.10;90.20
73939;DHT22;62291;47.554;8.504;2023-07-31T15:02:09;26.00;88.30
73939;DHT22;62291;47.554;8.504;2023-07-31T15:04:35;25.80;87.90
73939;DHT22;62291;47.554;8.504;2023-07-31T15:07:01;25.70;90.20
73939;DHT22;62291;47.554;8.504;2023-07-31T15:09:27;25.70;87.80
73939;DHT22;62291;47.554;8.504;2023-07-31T15:11:53;25.60;90.00
73939;DHT22;62291;47.554;8.504;2023-07-31T15:14:19;25.70;90.70
73939;DHT22;62291;47.554;8.504;2023-07-31T15:16:45;25.80;90.40
73939;DHT22;62291;47.554;8.504;2023-07-31T15:19:11;26.00;91.10
73939;DHT22;62291;47.554;8.504;2023-07-31T15:21:37;26.20;90.10
73939;DHT22;62291;47.554;8.504;2023-07-31T15:24:03;26.40;90.50
73939;DHT22;62291;47.554;8.504;2023-07-31T15:26:29;26.60;90.60
73939;DHT22;62291;47.554;8.504;2023-07-31T15:29:02;26.70;91.10
73939;DHT22;62291;47.554;8.504;2023-07-31T15:31:31;26.80;90.80
73939;DHT22;62291;47.554;8.504;2023-07-31T15:33:56;26.80;90.70
73939;DHT22;62291;47.554;8.504;2023-07-31T15:36:22;26.80;90.40
73939;DHT22;62291;47.554;8.504;2023-07-31T15:38:48;26.60;88.70
73939;DHT22;62291;47.554;8.504;2023-07-31T15:41:17;26.40;89.30
73939;DHT22;62291;47.554;8.504;2023-07-31T15:43:43;26.30;90.80
73939;DHT22;62291;47.554;8.504;2023-07-31T15:46:08;26.20;89.80
73939;DHT22;62291;47.554;8.504;2023-07-31T15:48:34;26.10;91.20
73939;DHT22;62291;47.554;8.504;2023-07-31T15:51:00;25.90;90.80